Main page
METAR-TAF:

METAR-TAF

Airports :

Curaçao, Netherlands Antilles

Curaçao International Airport

latitude: 12-12N, longitude: 068-58W, elevation: 9 m

Current weather observation

The report was made 13 minutes ago, at 05:00 UTC
Wind 7 kt from the East
Temperature 26°C
Humidity 84%
Pressure 1012 hPa
Visibility 10 km or more
Few clouds at a height of 1700 ft

METAR: TNCC 260500Z 09007KT 9999 FEW017 26/23 Q1012 NOSIG

Time: 01:13 (05:13 UTC)

Forecast

The report was made 7 hours and 13 minutes ago, at 22:00 UTC
Forecast valid from 26 at 00 UTC to 26 at 24 UTC
Wind 8 kt from the East
Visibility 10 km or more
Scattered clouds at a height of 1800 ft
Temporary
between and UTC
Probability 30%
between 70 and 00 UTC
Broken clouds at a height of 1400 ft
Broken clouds at a height of 3500 ft
rain showers

TAF: TNCC 252200Z 2600/2624 09008KT 9999 SCT018 TEMPO PROB30 7000 SHRA BKN014 BKN035

Weather observations and forecasts of more than 4000 airports (METAR and TAF reports).

The available stations are represented by yellow and red dots on the map.

Hover mouse over dot to see the name of the station.

Then click to see weather observations and forecasts.

To change the map : click on the green buttons with a black cross to zoom in, on the green button with a dash to zoom out, or on the green arrows for adjacent maps.


METAR-TAF: